sensor_id;sensor_type;location;lat;lon;timestamp;pressure;altitude;pressure_sealevel;temperature;humidity
6343;BME280;3204;42.698;23.298;2022-12-07T07:43:02;94860.50;;;7.81;94.99
6343;BME280;3204;42.698;23.298;2022-12-07T07:45:28;94859.53;;;7.90;92.71
6343;BME280;3204;42.698;23.298;2022-12-07T07:47:54;94858.81;;;7.85;91.37
6343;BME280;3204;42.698;23.298;2022-12-07T07:50:20;94852.34;;;7.86;91.17
6343;BME280;3204;42.698;23.298;2022-12-07T07:52:46;94857.28;;;7.97;90.76
6343;BME280;3204;42.698;23.298;2022-12-07T07:55:12;94854.59;;;7.97;90.75
6343;BME280;3204;42.698;23.298;2022-12-07T07:57:38;94852.81;;;8.06;90.23
6343;BME280;3204;42.698;23.298;2022-12-07T08:00:09;94862.38;;;7.99;89.95
6343;BME280;3204;42.698;23.298;2022-12-07T08:02:35;94854.41;;;8.07;89.69
6343;BME280;3204;42.698;23.298;2022-12-07T08:05:01;94855.28;;;8.21;89.15
6343;BME280;3204;42.698;23.298;2022-12-07T08:07:27;94853.38;;;8.22;88.77
6343;BME280;3204;42.698;23.298;2022-12-07T08:09:53;94860.94;;;8.20;88.79
6343;BME280;3204;42.698;23.298;2022-12-07T08:12:18;94859.00;;;8.07;89.14
6343;BME280;3204;42.698;23.298;2022-12-07T08:14:44;94854.63;;;8.11;89.07
6343;BME280;3204;42.698;23.298;2022-12-07T08:17:10;94859.00;;;8.07;88.66
6343;BME280;3204;42.698;23.298;2022-12-07T08:19:35;94860.75;;;8.16;89.17
6343;BME280;3204;42.698;23.298;2022-12-07T08:22:01;94861.25;;;8.18;88.97
6343;BME280;3204;42.698;23.298;2022-12-07T08:24:27;94853.72;;;8.34;88.27
6343;BME280;3204;42.698;23.298;2022-12-07T08:26:52;94855.84;;;8.18;88.15
6343;BME280;3204;42.698;23.298;2022-12-07T08:29:18;94860.22;;;8.14;88.28
6343;BME280;3204;42.698;23.298;2022-12-07T08:31:44;94856.88;;;8.22;87.61
6343;BME280;3204;42.698;23.298;2022-12-07T08:34:13;94866.00;;;8.08;88.30
6343;BME280;3204;42.698;23.298;2022-12-07T08:36:38;94864.53;;;8.15;88.58
6343;BME280;3204;42.698;23.298;2022-12-07T08:39:04;94864.69;;;8.24;88.12
6343;BME280;3204;42.698;23.298;2022-12-07T08:41:30;94851.47;;;8.22;88.11
6343;BME280;3204;42.698;23.298;2022-12-07T08:43:55;94846.03;;;7.90;88.13
6343;BME280;3204;42.698;23.298;2022-12-07T08:46:22;94840.56;;;7.95;88.84
6343;BME280;3204;42.698;23.298;2022-12-07T08:49:20;94843.22;;;8.14;88.22
6343;BME280;3204;42.698;23.298;2022-12-07T08:51:48;94837.75;;;8.19;87.13
6343;BME280;3204;42.698;23.298;2022-12-07T08:54:16;94839.31;;;8.38;88.20
6343;BME280;3204;42.698;23.298;2022-12-07T08:56:42;94844.59;;;8.43;87.15
6343;BME280;3204;42.698;23.298;2022-12-07T08:59:08;94835.53;;;8.53;86.45
6343;BME280;3204;42.698;23.298;2022-12-07T09:01:34;94839.75;;;8.59;86.20
6343;BME280;3204;42.698;23.298;2022-12-07T09:04:00;94835.34;;;8.63;85.51
6343;BME280;3204;42.698;23.298;2022-12-07T09:06:25;94827.22;;;8.63;85.63
6343;BME280;3204;42.698;23.298;2022-12-07T09:08:53;94838.34;;;8.75;85.77
6343;BME280;3204;42.698;23.298;2022-12-07T09:11:21;94823.03;;;8.70;86.34
6343;BME280;3204;42.698;23.298;2022-12-07T09:13:46;94824.63;;;8.71;85.46
6343;BME280;3204;42.698;23.298;2022-12-07T09:16:12;94825.94;;;8.60;85.92
6343;BME280;3204;42.698;23.298;2022-12-07T09:18:37;94820.31;;;8.84;85.77
6343;BME280;3204;42.698;23.298;2022-12-07T09:21:03;94822.03;;;8.93;84.73
6343;BME280;3204;42.698;23.298;2022-12-07T09:23:29;94827.34;;;8.85;84.17
6343;BME280;3204;42.698;23.298;2022-12-07T09:25:54;94831.16;;;8.97;84.35
6343;BME280;3204;42.698;23.298;2022-12-07T09:28:20;94817.22;;;9.04;84.18
6343;BME280;3204;42.698;23.298;2022-12-07T09:30:49;94814.59;;;9.12;83.69
6343;BME280;3204;42.698;23.298;2022-12-07T09:33:14;94814.50;;;8.90;83.18
6343;BME280;3204;42.698;23.298;2022-12-07T09:35:47;94808.31;;;8.90;84.05
6343;BME280;3204;42.698;23.298;2022-12-07T09:38:14;94798.78;;;8.79;84.71
6343;BME280;3204;42.698;23.298;2022-12-07T09:40:39;94792.47;;;8.70;84.31
6343;BME280;3204;42.698;23.298;2022-12-07T09:43:15;94788.09;;;8.87;84.12
6343;BME280;3204;42.698;23.298;2022-12-07T09:45:42;94794.59;;;8.73;84.36
6343;BME280;3204;42.698;23.298;2022-12-07T09:48:21;94792.78;;;8.82;84.73
6343;BME280;3204;42.698;23.298;2022-12-07T09:50:49;94795.97;;;8.97;84.10
6343;BME280;3204;42.698;23.298;2022-12-07T09:53:20;94792.72;;;9.22;83.66
6343;BME280;3204;42.698;23.298;2022-12-07T09:55:47;94793.69;;;9.40;82.86
6343;BME280;3204;42.698;23.298;2022-12-07T09:58:20;94790.44;;;9.16;82.45
6343;BME280;3204;42.698;23.298;2022-12-07T10:00:47;94784.25;;;9.02;82.71
6343;BME280;3204;42.698;23.298;2022-12-07T10:03:12;94785.78;;;9.30;82.38
6343;BME280;3204;42.698;23.298;2022-12-07T10:05:41;94793.28;;;9.46;82.76
6343;BME280;3204;42.698;23.298;2022-12-07T10:08:10;94785.44;;;9.58;81.35
6343;BME280;3204;42.698;23.298;2022-12-07T10:10:36;94773.38;;;9.64;80.55
6343;BME280;3204;42.698;23.298;2022-12-07T10:13:15;94766.88;;;9.74;81.17
6343;BME280;3204;42.698;23.298;2022-12-07T10:15:56;94768.31;;;9.71;81.47
6343;BME280;3204;42.698;23.298;2022-12-07T10:18:37;94767.16;;;9.86;80.49
6343;BME280;3204;42.698;23.298;2022-12-07T10:21:16;94755.16;;;9.78;80.80
6343;BME280;3204;42.698;23.298;2022-12-07T10:24:05;94753.47;;;9.69;81.54
6343;BME280;3204;42.698;23.298;2022-12-07T10:26:40;94752.69;;;9.68;81.64
6343;BME280;3204;42.698;23.298;2022-12-07T10:29:34;94739.69;;;9.79;81.11
6343;BME280;3204;42.698;23.298;2022-12-07T10:32:23;94733.41;;;9.92;80.16
6343;BME280;3204;42.698;23.298;2022-12-07T10:34:51;94727.25;;;9.78;80.79
6343;BME280;3204;42.698;23.298;2022-12-07T10:37:40;94730.53;;;9.66;81.06
6343;BME280;3204;42.698;23.298;2022-12-07T10:51:14;94725.03;;;10.32;78.84
6343;BME280;3204;42.698;23.298;2022-12-07T11:02:37;94711.44;;;10.63;78.15
6343;BME280;3204;42.698;23.298;2022-12-07T11:13:53;94699.00;;;10.62;77.06
6343;BME280;3204;42.698;23.298;2022-12-07T11:16:38;94684.53;;;10.75;77.46
6343;BME280;3204;42.698;23.298;2022-12-07T11:22:01;94679.41;;;10.65;77.29
6343;BME280;3204;42.698;23.298;2022-12-07T11:24:56;94673.69;;;10.83;77.31
6343;BME280;3204;42.698;23.298;2022-12-07T11:32:49;94665.34;;;10.71;76.99
6343;BME280;3204;42.698;23.298;2022-12-07T11:38:11;94657.06;;;10.76;75.95
6343;BME280;3204;42.698;23.298;2022-12-07T11:40:39;94656.28;;;10.84;76.13
6343;BME280;3204;42.698;23.298;2022-12-07T11:43:25;94660.13;;;10.92;75.55
6343;BME280;3204;42.698;23.298;2022-12-07T11:46:05;94667.78;;;10.90;75.46
6343;BME280;3204;42.698;23.298;2022-12-07T11:48:35;94671.28;;;10.90;76.06
6343;BME280;3204;42.698;23.298;2022-12-07T11:51:02;94671.28;;;10.90;75.45
6343;BME280;3204;42.698;23.298;2022-12-07T11:53:37;94665.84;;;10.90;75.51
6343;BME280;3204;42.698;23.298;2022-12-07T11:56:11;94657.41;;;10.92;75.69
6343;BME280;3204;42.698;23.298;2022-12-07T12:06:37;94640.19;;;10.96;75.61
6343;BME280;3204;42.698;23.298;2022-12-07T12:12:01;94625.81;;;11.04;76.13
6343;BME280;3204;42.698;23.298;2022-12-07T12:17:50;94624.72;;;11.05;76.11
6343;BME280;3204;42.698;23.298;2022-12-07T12:25:24;94620.88;;;10.98;76.43
6343;BME280;3204;42.698;23.298;2022-12-07T12:27:52;94618.28;;;10.93;76.30
6343;BME280;3204;42.698;23.298;2022-12-07T12:33:01;94615.09;;;10.99;76.40
6343;BME280;3204;42.698;23.298;2022-12-07T12:35:37;94602.34;;;11.00;76.48
6343;BME280;3204;42.698;23.298;2022-12-07T12:38:26;94596.59;;;10.93;76.30
6343;BME280;3204;42.698;23.298;2022-12-07T12:40:53;94587.19;;;11.07;76.14
6343;BME280;3204;42.698;23.298;2022-12-07T12:43:45;94580.31;;;11.10;75.88
6343;BME280;3204;42.698;23.298;2022-12-07T12:46:35;94585.28;;;11.08;76.29
6343;BME280;3204;42.698;23.298;2022-12-07T12:51:59;94591.34;;;11.05;75.58
6343;BME280;3204;42.698;23.298;2022-12-07T12:54:29;94593.25;;;10.96;76.68
6343;BME280;3204;42.698;23.298;2022-12-07T12:59:58;94592.31;;;11.00;75.89
6343;BME280;3204;42.698;23.298;2022-12-07T13:02:22;94597.72;;;11.00;75.59
6343;BME280;3204;42.698;23.298;2022-12-07T13:13:31;94594.31;;;11.46;75.17
6343;BME280;3204;42.698;23.298;2022-12-07T13:18:36;94587.09;;;11.67;74.52
6343;BME280;3204;42.698;23.298;2022-12-07T13:28:43;94594.66;;;12.36;72.74
6343;BME280;3204;42.698;23.298;2022-12-07T13:31:11;94599.69;;;12.55;72.48
6343;BME280;3204;42.698;23.298;2022-12-07T13:33:38;94595.16;;;12.59;71.55
6343;BME280;3204;42.698;23.298;2022-12-07T13:36:18;94592.31;;;12.76;71.50
6343;BME280;3204;42.698;23.298;2022-12-07T13:41:19;94576.66;;;12.73;71.08
6343;BME280;3204;42.698;23.298;2022-12-07T13:44:11;94586.44;;;12.74;71.38
6343;BME280;3204;42.698;23.298;2022-12-07T13:46:43;94572.94;;;12.77;70.89
6343;BME280;3204;42.698;23.298;2022-12-07T13:49:24;94578.19;;;12.82;71.12
6343;BME280;3204;42.698;23.298;2022-12-07T13:51:50;94583.09;;;12.68;71.52
6343;BME280;3204;42.698;23.298;2022-12-07T13:54:17;94572.47;;;12.55;72.31
6343;BME280;3204;42.698;23.298;2022-12-07T13:56:43;94578.28;;;12.45;72.44
6343;BME280;3204;42.698;23.298;2022-12-07T13:59:18;94573.97;;;12.44;73.00
6343;BME280;3204;42.698;23.298;2022-12-07T14:01:46;94584.94;;;12.56;72.33
6343;BME280;3204;42.698;23.298;2022-12-07T14:04:32;94569.75;;;12.55;72.04
6343;BME280;3204;42.698;23.298;2022-12-07T14:06:58;94571.81;;;12.29;72.70
6343;BME280;3204;42.698;23.298;2022-12-07T14:09:25;94577.44;;;12.24;72.88
6343;BME280;3204;42.698;23.298;2022-12-07T14:11:53;94570.28;;;12.19;73.02
6343;BME280;3204;42.698;23.298;2022-12-07T14:14:30;94566.94;;;12.14;73.19
6343;BME280;3204;42.698;23.298;2022-12-07T14:17:17;94573.19;;;12.14;73.44
6343;BME280;3204;42.698;23.298;2022-12-07T14:22:38;94574.97;;;12.10;73.88
6343;BME280;3204;42.698;23.298;2022-12-07T14:25:23;94583.72;;;12.16;73.81
6343;BME280;3204;42.698;23.298;2022-12-07T14:27:58;94585.66;;;12.15;73.66
6343;BME280;3204;42.698;23.298;2022-12-07T14:30:27;94586.97;;;12.01;74.10
6343;BME280;3204;42.698;23.298;2022-12-07T14:33:04;94578.53;;;11.94;74.21
6343;BME280;3204;42.698;23.298;2022-12-07T14:35:31;94586.66;;;12.02;74.03
6343;BME280;3204;42.698;23.298;2022-12-07T14:37:57;94583.63;;;12.04;74.12
6343;BME280;3204;42.698;23.298;2022-12-07T14:40:27;94585.22;;;12.05;74.08
6343;BME280;3204;42.698;23.298;2022-12-07T14:43:13;94572.97;;;11.90;74.24
6343;BME280;3204;42.698;23.298;2022-12-07T14:45:39;94581.25;;;11.94;74.14
6343;BME280;3204;42.698;23.298;2022-12-07T14:48:06;94579.38;;;11.86;75.04
6343;BME280;3204;42.698;23.298;2022-12-07T14:50:37;94582.44;;;11.76;75.08
6343;BME280;3204;42.698;23.298;2022-12-07T14:53:16;94580.84;;;11.75;75.23
6343;BME280;3204;42.698;23.298;2022-12-07T14:55:42;94574.31;;;11.67;75.59
6343;BME280;3204;42.698;23.298;2022-12-07T14:58:13;94584.56;;;11.53;75.93
6343;BME280;3204;42.698;23.298;2022-12-07T15:00:39;94577.84;;;11.51;76.00
6343;BME280;3204;42.698;23.298;2022-12-07T15:03:04;94586.81;;;11.43;76.34
6343;BME280;3204;42.698;23.298;2022-12-07T15:05:30;94591.94;;;11.44;76.54
6343;BME280;3204;42.698;23.298;2022-12-07T15:07:55;94587.78;;;11.38;76.70
6343;BME280;3204;42.698;23.298;2022-12-07T15:10:27;94583.94;;;11.31;76.93
6343;BME280;3204;42.698;23.298;2022-12-07T15:12:55;94586.06;;;11.08;77.57
6343;BME280;3204;42.698;23.298;2022-12-07T15:15:41;94588.91;;;11.12;77.68
6343;BME280;3204;42.698;23.298;2022-12-07T15:18:07;94598.34;;;11.06;78.11
6343;BME280;3204;42.698;23.298;2022-12-07T15:20:33;94584.16;;;10.92;78.34
6343;BME280;3204;42.698;23.298;2022-12-07T15:22:58;94588.31;;;10.98;78.23
6343;BME280;3204;42.698;23.298;2022-12-07T15:25:24;94588.94;;;11.03;77.84
6343;BME280;3204;42.698;23.298;2022-12-07T15:27:49;94588.13;;;10.94;78.45
6343;BME280;3204;42.698;23.298;2022-12-07T15:30:15;94593.41;;;10.91;78.43
6343;BME280;3204;42.698;23.298;2022-12-07T15:32:40;94598.69;;;10.87;78.58
6343;BME280;3204;42.698;23.298;2022-12-07T15:35:06;94588.94;;;10.78;78.34
6343;BME280;3204;42.698;23.298;2022-12-07T15:37:32;94604.25;;;10.74;78.95
6343;BME280;3204;42.698;23.298;2022-12-07T15:39:58;94603.78;;;10.63;79.43
6343;BME280;3204;42.698;23.298;2022-12-07T15:42:23;94592.41;;;10.61;79.33
6343;BME280;3204;42.698;23.298;2022-12-07T15:44:49;94600.41;;;10.66;79.27
6343;BME280;3204;42.698;23.298;2022-12-07T15:47:43;94604.41;;;10.69;78.86
6343;BME280;3204;42.698;23.298;2022-12-07T15:50:14;94613.03;;;10.62;78.90
6343;BME280;3204;42.698;23.298;2022-12-07T15:52:40;94598.47;;;10.50;79.00
6343;BME280;3204;42.698;23.298;2022-12-07T15:55:06;94605.81;;;10.49;79.22
6343;BME280;3204;42.698;23.298;2022-12-07T15:57:33;94601.00;;;10.38;79.76
6343;BME280;3204;42.698;23.298;2022-12-07T15:59:59;94605.59;;;10.29;79.72
6343;BME280;3204;42.698;23.298;2022-12-07T16:02:25;94603.66;;;10.21;79.95
6343;BME280;3204;42.698;23.298;2022-12-07T16:04:51;94602.44;;;10.27;80.09
6343;BME280;3204;42.698;23.298;2022-12-07T16:07:17;94608.91;;;10.17;80.78
6343;BME280;3204;42.698;23.298;2022-12-07T16:09:44;94602.22;;;10.15;80.91
6343;BME280;3204;42.698;23.298;2022-12-07T16:12:11;94609.69;;;10.09;81.10
6343;BME280;3204;42.698;23.298;2022-12-07T16:14:37;94611.19;;;9.93;81.63
6343;BME280;3204;42.698;23.298;2022-12-07T16:17:03;94606.59;;;9.94;81.52
6343;BME280;3204;42.698;23.298;2022-12-07T16:19:30;94606.41;;;9.90;81.92
6343;BME280;3204;42.698;23.298;2022-12-07T16:21:55;94605.25;;;9.83;82.18
6343;BME280;3204;42.698;23.298;2022-12-07T16:24:21;94604.63;;;9.86;82.03
6343;BME280;3204;42.698;23.298;2022-12-07T16:26:47;94607.19;;;9.91;82.00
6343;BME280;3204;42.698;23.298;2022-12-07T16:29:13;94616.78;;;9.97;81.40
6343;BME280;3204;42.698;23.298;2022-12-07T16:31:39;94619.28;;;9.85;81.64
6343;BME280;3204;42.698;23.298;2022-12-07T16:34:05;94622.31;;;9.83;81.90
6343;BME280;3204;42.698;23.298;2022-12-07T16:36:31;94618.44;;;9.76;82.28
6343;BME280;3204;42.698;23.298;2022-12-07T16:38:59;94621.34;;;9.79;82.26
6343;BME280;3204;42.698;23.298;2022-12-07T16:41:25;94621.78;;;9.73;82.34
6343;BME280;3204;42.698;23.298;2022-12-07T16:43:51;94631.00;;;9.72;82.56
6343;BME280;3204;42.698;23.298;2022-12-07T16:46:16;94630.03;;;9.68;82.50
6343;BME280;3204;42.698;23.298;2022-12-07T16:48:42;94638.72;;;9.56;82.92
6343;BME280;3204;42.698;23.298;2022-12-07T16:51:10;94639.44;;;9.70;82.82
6343;BME280;3204;42.698;23.298;2022-12-07T16:53:38;94633.28;;;9.78;82.40
6343;BME280;3204;42.698;23.298;2022-12-07T16:56:04;94638.91;;;9.60;82.83
6343;BME280;3204;42.698;23.298;2022-12-07T16:58:30;94639.16;;;9.50;82.97
6343;BME280;3204;42.698;23.298;2022-12-07T17:00:56;94639.66;;;9.52;82.94
6343;BME280;3204;42.698;23.298;2022-12-07T17:03:21;94639.28;;;9.45;83.42
6343;BME280;3204;42.698;23.298;2022-12-07T17:05:47;94639.59;;;9.43;83.65
6343;BME280;3204;42.698;23.298;2022-12-07T17:08:14;94626.75;;;9.49;83.90
6343;BME280;3204;42.698;23.298;2022-12-07T17:10:42;94634.97;;;9.44;83.59
6343;BME280;3204;42.698;23.298;2022-12-07T17:13:08;94620.84;;;9.25;84.14
6343;BME280;3204;42.698;23.298;2022-12-07T17:16:04;94616.91;;;9.31;84.44
6343;BME280;3204;42.698;23.298;2022-12-07T17:18:33;94622.69;;;9.38;84.13
6343;BME280;3204;42.698;23.298;2022-12-07T17:21:06;94627.84;;;9.26;84.81
6343;BME280;3204;42.698;23.298;2022-12-07T17:23:33;94642.50;;;9.25;84.27
6343;BME280;3204;42.698;23.298;2022-12-07T17:26:10;94635.38;;;9.29;84.04
6343;BME280;3204;42.698;23.298;2022-12-07T17:28:36;94647.66;;;9.13;84.81
6343;BME280;3204;42.698;23.298;2022-12-07T17:31:06;94641.50;;;9.21;85.02
6343;BME280;3204;42.698;23.298;2022-12-07T17:33:32;94639.53;;;9.13;84.86
6343;BME280;3204;42.698;23.298;2022-12-07T17:35:58;94640.22;;;9.18;84.61
6343;BME280;3204;42.698;23.298;2022-12-07T17:38:24;94640.75;;;9.07;85.58
6343;BME280;3204;42.698;23.298;2022-12-07T17:40:49;94644.22;;;8.99;85.90
6343;BME280;3204;42.698;23.298;2022-12-07T17:43:15;94632.59;;;8.98;85.24
6343;BME280;3204;42.698;23.298;2022-12-07T17:45:40;94633.66;;;8.75;86.63
6343;BME280;3204;42.698;23.298;2022-12-07T17:48:06;94628.31;;;8.62;87.03
6343;BME280;3204;42.698;23.298;2022-12-07T17:50:31;94648.34;;;8.61;86.90
6343;BME280;3204;42.698;23.298;2022-12-07T17:53:16;94643.34;;;8.90;86.35
6343;BME280;3204;42.698;23.298;2022-12-07T17:55:42;94644.44;;;8.89;86.23
6343;BME280;3204;42.698;23.298;2022-12-07T17:58:07;94645.63;;;8.61;86.51
6343;BME280;3204;42.698;23.298;2022-12-07T18:00:33;94648.34;;;8.61;87.67
6343;BME280;3204;42.698;23.298;2022-12-07T18:03:06;94649.31;;;8.65;86.88
6343;BME280;3204;42.698;23.298;2022-12-07T18:05:36;94650.94;;;8.66;87.70
6343;BME280;3204;42.698;23.298;2022-12-07T18:08:02;94654.16;;;8.54;87.06
6343;BME280;3204;42.698;23.298;2022-12-07T18:10:27;94656.63;;;8.51;87.58
6343;BME280;3204;42.698;23.298;2022-12-07T18:12:53;94655.78;;;8.42;88.17
6343;BME280;3204;42.698;23.298;2022-12-07T18:15:39;94659.84;;;8.39;88.91
6343;BME280;3204;42.698;23.298;2022-12-07T18:18:05;94672.00;;;8.42;88.74
6343;BME280;3204;42.698;23.298;2022-12-07T18:20:30;94663.16;;;8.50;88.46
6343;BME280;3204;42.698;23.298;2022-12-07T18:22:56;94672.38;;;8.49;87.41
6343;BME280;3204;42.698;23.298;2022-12-07T18:25:21;94659.19;;;8.34;87.80
6343;BME280;3204;42.698;23.298;2022-12-07T18:27:46;94659.22;;;8.15;88.52
6343;BME280;3204;42.698;23.298;2022-12-07T18:30:13;94668.16;;;8.02;89.72
6343;BME280;3204;42.698;23.298;2022-12-07T18:32:38;94676.75;;;8.04;89.64
6343;BME280;3204;42.698;23.298;2022-12-07T18:35:04;94674.06;;;7.91;89.49
6343;BME280;3204;42.698;23.298;2022-12-07T18:37:30;94675.94;;;7.77;89.93
6343;BME280;3204;42.698;23.298;2022-12-07T18:39:58;94676.50;;;7.74;90.29
6343;BME280;3204;42.698;23.298;2022-12-07T18:42:23;94678.00;;;7.66;90.52
6343;BME280;3204;42.698;23.298;2022-12-07T18:44:49;94695.13;;;7.89;90.29
6343;BME280;3204;42.698;23.298;2022-12-07T18:47:14;94691.25;;;7.95;89.47
6343;BME280;3204;42.698;23.298;2022-12-07T18:49:40;94672.66;;;7.93;89.14
6343;BME280;3204;42.698;23.298;2022-12-07T18:52:05;94692.06;;;8.09;89.08
6343;BME280;3204;42.698;23.298;2022-12-07T18:54:31;94687.25;;;8.06;88.71
6343;BME280;3204;42.698;23.298;2022-12-07T18:56:56;94692.06;;;8.09;88.49
6343;BME280;3204;42.698;23.298;2022-12-07T18:59:22;94692.28;;;8.26;87.63
6343;BME280;3204;42.698;23.298;2022-12-07T19:02:06;94686.97;;;8.07;87.51
6343;BME280;3204;42.698;23.298;2022-12-07T19:04:31;94691.75;;;8.10;88.19
6343;BME280;3204;42.698;23.298;2022-12-07T19:06:57;94704.97;;;8.12;88.10
6343;BME280;3204;42.698;23.298;2022-12-07T19:09:23;94699.16;;;8.18;88.46
6343;BME280;3204;42.698;23.298;2022-12-07T19:11:48;94701.22;;;8.26;86.76
6343;BME280;3204;42.698;23.298;2022-12-07T19:14:16;94700.97;;;8.23;87.19
6343;BME280;3204;42.698;23.298;2022-12-07T19:16:43;94710.25;;;8.17;87.04
6343;BME280;3204;42.698;23.298;2022-12-07T19:19:09;94714.66;;;8.13;87.53
6343;BME280;3204;42.698;23.298;2022-12-07T19:21:35;94711.47;;;8.11;87.38
6343;BME280;3204;42.698;23.298;2022-12-07T19:24:04;94712.69;;;8.32;87.38
6343;BME280;3204;42.698;23.298;2022-12-07T19:26:31;94702.34;;;8.07;86.56
6343;BME280;3204;42.698;23.298;2022-12-07T19:28:56;94711.03;;;8.04;86.96
6343;BME280;3204;42.698;23.298;2022-12-07T19:31:22;94701.63;;;7.88;88.33
6343;BME280;3204;42.698;23.298;2022-12-07T19:33:47;94699.34;;;7.95;87.65
6343;BME280;3204;42.698;23.298;2022-12-07T19:36:13;94707.94;;;7.97;87.43
6343;BME280;3204;42.698;23.298;2022-12-07T19:38:39;94703.13;;;7.94;87.19
6343;BME280;3204;42.698;23.298;2022-12-07T19:41:06;94704.53;;;7.91;87.05
6343;BME280;3204;42.698;23.298;2022-12-07T19:43:33;94710.75;;;7.92;88.59
6343;BME280;3204;42.698;23.298;2022-12-07T19:46:05;94710.84;;;7.87;87.05
6343;BME280;3204;42.698;23.298;2022-12-07T19:48:31;94708.94;;;7.87;86.80
6343;BME280;3204;42.698;23.298;2022-12-07T19:51:05;94707.94;;;7.97;87.58
6343;BME280;3204;42.698;23.298;2022-12-07T19:53:31;94708.78;;;8.11;87.86
6343;BME280;3204;42.698;23.298;2022-12-07T19:55:57;94709.94;;;7.91;87.62
6343;BME280;3204;42.698;23.298;2022-12-07T19:58:23;94699.25;;;8.00;87.01
6343;BME280;3204;42.698;23.298;2022-12-07T20:00:48;94705.25;;;7.83;87.65
6343;BME280;3204;42.698;23.298;2022-12-07T20:03:13;94713.28;;;7.70;88.74
6343;BME280;3204;42.698;23.298;2022-12-07T20:05:39;94705.94;;;7.89;87.90
6343;BME280;3204;42.698;23.298;2022-12-07T20:08:04;94708.41;;;8.44;90.36
6343;BME280;3204;42.698;23.298;2022-12-07T20:10:30;94708.38;;;8.17;87.39
6343;BME280;3204;42.698;23.298;2022-12-07T20:12:58;94725.84;;;7.93;88.18
6343;BME280;3204;42.698;23.298;2022-12-07T20:15:42;94727.16;;;7.95;87.84
6343;BME280;3204;42.698;23.298;2022-12-07T20:18:07;94728.63;;;7.88;88.46
6343;BME280;3204;42.698;23.298;2022-12-07T20:20:33;94721.13;;;7.85;88.41
6343;BME280;3204;42.698;23.298;2022-12-07T20:22:58;94717.09;;;7.69;88.64
6343;BME280;3204;42.698;23.298;2022-12-07T20:25:24;94724.41;;;7.68;88.79
6343;BME280;3204;42.698;23.298;2022-12-07T20:27:49;94729.09;;;7.63;88.59
6343;BME280;3204;42.698;23.298;2022-12-07T20:30:16;94722.50;;;7.69;88.94
6343;BME280;3204;42.698;23.298;2022-12-07T20:32:41;94727.41;;;7.80;88.69
6343;BME280;3204;42.698;23.298;2022-12-07T20:35:07;94729.88;;;7.63;88.78
6343;BME280;3204;42.698;23.298;2022-12-07T20:37:34;94731.06;;;7.57;88.57
6343;BME280;3204;42.698;23.298;2022-12-07T20:40:00;94729.25;;;7.53;89.51
6343;BME280;3204;42.698;23.298;2022-12-07T20:42:25;94724.34;;;7.55;88.87
6343;BME280;3204;42.698;23.298;2022-12-07T20:45:04;94728.06;;;7.59;89.07
6343;BME280;3204;42.698;23.298;2022-12-07T20:47:32;94730.34;;;7.52;88.80
6343;BME280;3204;42.698;23.298;2022-12-07T20:49:59;94731.00;;;7.44;89.41
6343;BME280;3204;42.698;23.298;2022-12-07T20:52:25;94731.94;;;7.53;89.15
6343;BME280;3204;42.698;23.298;2022-12-07T20:54:51;94737.44;;;7.48;89.82
6343;BME280;3204;42.698;23.298;2022-12-07T20:57:16;94739.22;;;7.52;89.15
6343;BME280;3204;42.698;23.298;2022-12-07T20:59:42;94744.41;;;7.49;89.65
6343;BME280;3204;42.698;23.298;2022-12-07T21:02:11;94736.81;;;7.51;88.77
6343;BME280;3204;42.698;23.298;2022-12-07T21:04:36;94731.72;;;7.49;88.78
6343;BME280;3204;42.698;23.298;2022-12-07T21:07:02;94738.13;;;7.53;88.50
6343;BME280;3204;42.698;23.298;2022-12-07T21:09:27;94743.75;;;7.57;87.92
6343;BME280;3204;42.698;23.298;2022-12-07T21:11:53;94743.44;;;7.58;88.39
6343;BME280;3204;42.698;23.298;2022-12-07T21:14:19;94743.03;;;7.51;87.90
6343;BME280;3204;42.698;23.298;2022-12-07T21:16:45;94739.97;;;7.39;87.79
6343;BME280;3204;42.698;23.298;2022-12-07T21:19:11;94737.50;;;7.24;87.33
6343;BME280;3204;42.698;23.298;2022-12-07T21:21:36;94735.91;;;7.23;88.46
6343;BME280;3204;42.698;23.298;2022-12-07T21:24:03;94741.06;;;7.38;87.21
6343;BME280;3204;42.698;23.298;2022-12-07T21:26:31;94739.34;;;7.29;87.70
6343;BME280;3204;42.698;23.298;2022-12-07T21:29:04;94734.97;;;7.14;88.54
6343;BME280;3204;42.698;23.298;2022-12-07T21:31:30;94734.69;;;7.16;89.00
6343;BME280;3204;42.698;23.298;2022-12-07T21:33:55;94729.28;;;7.16;88.58
6343;BME280;3204;42.698;23.298;2022-12-07T21:36:23;94739.63;;;7.27;88.26
6343;BME280;3204;42.698;23.298;2022-12-07T21:38:49;94736.13;;;7.27;88.03
6343;BME280;3204;42.698;23.298;2022-12-07T21:43:43;94747.00;;;7.22;88.80
6343;BME280;3204;42.698;23.298;2022-12-07T21:46:09;94751.97;;;7.15;88.23
6343;BME280;3204;42.698;23.298;2022-12-07T21:48:35;94750.78;;;7.21;88.29
6343;BME280;3204;42.698;23.298;2022-12-07T21:51:08;94750.38;;;7.14;87.86
6343;BME280;3204;42.698;23.298;2022-12-07T21:53:35;94748.47;;;7.14;87.95
6343;BME280;3204;42.698;23.298;2022-12-07T21:56:01;94743.88;;;7.15;88.11
6343;BME280;3204;42.698;23.298;2022-12-07T21:58:27;94742.78;;;7.16;88.18
6343;BME280;3204;42.698;23.298;2022-12-07T22:00:53;94739.00;;;6.98;88.18
6343;BME280;3204;42.698;23.298;2022-12-07T22:03:18;94744.75;;;6.92;87.61
6343;BME280;3204;42.698;23.298;2022-12-07T22:05:44;94733.53;;;7.03;87.74
6343;BME280;3204;42.698;23.298;2022-12-07T22:08:09;94736.44;;;7.07;87.57
6343;BME280;3204;42.698;23.298;2022-12-07T22:10:35;94739.84;;;6.94;87.14
6343;BME280;3204;42.698;23.298;2022-12-07T22:13:00;94731.41;;;7.51;99.17
6343;BME280;3204;42.698;23.298;2022-12-07T22:15:27;94732.97;;;7.38;89.31
6343;BME280;3204;42.698;23.298;2022-12-07T22:17:53;94731.91;;;7.21;88.23
6343;BME280;3204;42.698;23.298;2022-12-07T22:20:20;94733.16;;;7.10;88.55
6343;BME280;3204;42.698;23.298;2022-12-07T22:22:46;94737.25;;;7.07;87.98
6343;BME280;3204;42.698;23.298;2022-12-07T22:25:13;94732.94;;;6.88;88.63
6343;BME280;3204;42.698;23.298;2022-12-07T22:27:39;94740.38;;;6.96;87.38
6343;BME280;3204;42.698;23.298;2022-12-07T22:30:07;94735.91;;;6.86;88.04
6343;BME280;3204;42.698;23.298;2022-12-07T22:32:33;94746.19;;;6.84;89.33
6343;BME280;3204;42.698;23.298;2022-12-07T22:34:58;94742.13;;;6.87;89.27
6343;BME280;3204;42.698;23.298;2022-12-07T22:37:27;94734.09;;;6.82;88.77
6343;BME280;3204;42.698;23.298;2022-12-07T22:39:52;94724.72;;;6.79;88.71
6343;BME280;3204;42.698;23.298;2022-12-07T22:42:18;94735.63;;;6.88;88.66
6343;BME280;3204;42.698;23.298;2022-12-07T22:44:44;94721.72;;;6.81;88.55